Terminal Aerodrome Forecast
Issued by NWS Austin/San Antonio, TX

Home | Current Version | Previous Version | Text Only | Print | Product List | Glossary On
Versions: 1 2 3 4 5 6 7 8 9 10 11 12 13 14
773
FTUS44 KEWX 250026 AAA
TAFDRT
TAF AMD
KDRT 250026Z 2500/2524 12014KT P6SM FEW050
     FM250100 10010KT P6SM SKC
     FM250500 12014KT P6SM FEW100
     FM251100 11008KT P6SM SCT120=

USA.gov is the U.S. government's official web portal to all federal, state and local government web resources and services.